createdAt,value
2022-11-26T00:02:29.238Z,3.20
2022-11-26T00:04:58.607Z,3.20
2022-11-26T00:07:29.019Z,3.10
2022-11-26T00:09:58.433Z,3.10
2022-11-26T00:12:30.400Z,3.10
2022-11-26T00:14:57.580Z,3.00
2022-11-26T00:17:24.574Z,3.00
2022-11-26T00:19:51.619Z,3.00
2022-11-26T00:22:26.735Z,3.10
2022-11-26T00:24:54.736Z,3.10
2022-11-26T00:27:27.274Z,3.00
2022-11-26T00:29:55.031Z,2.90
2022-11-26T00:32:25.518Z,3.00
2022-11-26T00:34:53.505Z,3.00
2022-11-26T00:37:26.219Z,3.10
2022-11-26T00:39:54.017Z,5.10
2022-11-26T00:42:21.164Z,3.00
2022-11-26T00:44:48.240Z,3.00
2022-11-26T00:47:15.151Z,2.90
2022-11-26T00:49:42.049Z,2.90
2022-11-26T00:52:33.177Z,2.90
2022-11-26T00:55:03.989Z,2.90
2022-11-26T00:57:30.901Z,2.90
2022-11-26T00:59:57.806Z,3.00
2022-11-26T01:02:24.751Z,3.10
2022-11-26T01:04:51.690Z,3.10
2022-11-26T01:07:18.680Z,3.00
2022-11-26T01:09:47.884Z,3.00
2022-11-26T01:12:15.667Z,3.00
2022-11-26T01:14:42.574Z,2.90
2022-11-26T01:17:12.204Z,3.00
2022-11-26T01:19:39.119Z,3.00
2022-11-26T01:22:06.286Z,3.00
2022-11-26T01:24:33.136Z,3.20
2022-11-26T01:27:00.032Z,3.10
2022-11-26T01:29:26.915Z,3.10
2022-11-26T01:31:53.895Z,3.10
2022-11-26T01:34:20.790Z,3.10
2022-11-26T01:36:47.681Z,3.10
2022-11-26T01:39:19.193Z,2.00
2022-11-26T01:42:43.307Z,3.00
2022-11-26T01:45:17.545Z,3.10
2022-11-26T01:47:48.571Z,2.90
2022-11-26T01:50:34.374Z,2.80
2022-11-26T01:53:16.077Z,2.80
2022-11-26T01:55:53.149Z,2.70
2022-11-26T01:58:46.341Z,2.70
2022-11-26T02:01:13.814Z,2.70
2022-11-26T02:04:00.791Z,2.70
2022-11-26T02:06:33.804Z,2.60
2022-11-26T02:09:05.261Z,2.60
2022-11-26T02:11:32.201Z,2.60
2022-11-26T02:14:09.403Z,2.50
2022-11-26T02:17:08.829Z,2.50
2022-11-26T02:20:18.124Z,2.50
2022-11-26T02:23:28.472Z,2.50
2022-11-26T02:26:29.025Z,2.50
2022-11-26T02:29:25.968Z,2.50
2022-11-26T02:32:13.261Z,2.50
2022-11-26T02:35:02.101Z,2.40
2022-11-26T02:38:03.038Z,2.40
2022-11-26T02:40:30.043Z,2.30
2022-11-26T02:42:57.138Z,2.40
2022-11-26T02:45:28.986Z,2.30
2022-11-26T02:48:00.560Z,2.40
2022-11-26T02:50:51.294Z,2.40
2022-11-26T02:53:22.159Z,2.20
2022-11-26T02:56:01.870Z,2.30
2022-11-26T03:00:59.328Z,2.30
2022-11-26T03:03:37.300Z,2.40
2022-11-26T03:06:10.462Z,2.50
2022-11-26T03:08:38.137Z,2.40
2022-11-26T03:11:06.841Z,2.50
2022-11-26T03:13:33.849Z,2.40
2022-11-26T03:16:00.847Z,2.40
2022-11-26T03:18:27.983Z,2.40
2022-11-26T03:20:54.939Z,2.50
2022-11-26T03:23:21.922Z,2.50
2022-11-26T03:28:16.113Z,2.50
2022-11-26T03:30:43.144Z,2.60
2022-11-26T03:33:10.658Z,2.50
2022-11-26T03:35:37.620Z,2.50
2022-11-26T03:38:04.495Z,2.60
2022-11-26T03:42:58.738Z,2.60
2022-11-26T03:45:25.774Z,2.50
2022-11-26T03:47:52.709Z,2.60
2022-11-26T03:50:19.689Z,2.70
2022-11-26T03:52:46.578Z,2.70
2022-11-26T03:55:13.462Z,2.60
2022-11-26T03:57:40.386Z,2.70
2022-11-26T04:00:09.212Z,2.70
2022-11-26T04:02:36.982Z,2.70
2022-11-26T04:05:04.879Z,2.80
2022-11-26T04:07:31.901Z,2.70
2022-11-26T04:09:58.821Z,2.80
2022-11-26T04:12:25.753Z,2.90
2022-11-26T04:14:52.642Z,2.90
2022-11-26T04:17:19.489Z,2.90
2022-11-26T04:19:46.346Z,2.90
2022-11-26T04:22:13.260Z,2.90
2022-11-26T04:24:40.522Z,3.00
2022-11-26T04:27:07.906Z,2.90
2022-11-26T04:29:36.343Z,5.80
2022-11-26T04:32:05.032Z,3.00
2022-11-26T04:34:32.533Z,2.90
2022-11-26T04:36:59.410Z,2.80
2022-11-26T04:39:26.304Z,2.90
2022-11-26T04:41:53.176Z,2.90
2022-11-26T04:44:20.183Z,2.80
2022-11-26T04:46:47.193Z,2.80
2022-11-26T04:49:14.137Z,2.70
2022-11-26T04:51:41.084Z,2.90
2022-11-26T04:54:12.708Z,2.80
2022-11-26T04:56:40.179Z,2.80
2022-11-26T04:59:07.371Z,2.90
2022-11-26T05:01:34.239Z,3.00
2022-11-26T05:04:01.154Z,2.90
2022-11-26T05:06:28.150Z,3.00
2022-11-26T05:08:55.068Z,2.90
2022-11-26T05:11:21.972Z,2.90
2022-11-26T05:13:48.926Z,2.90
2022-11-26T05:16:15.903Z,3.00
2022-11-26T05:18:43.325Z,3.00
2022-11-26T05:21:10.225Z,3.00
2022-11-26T05:23:37.134Z,3.00
2022-11-26T05:26:04.059Z,3.00
2022-11-26T05:28:30.989Z,3.10
2022-11-26T05:31:02.798Z,3.10
2022-11-26T05:33:30.731Z,3.20
2022-11-26T05:35:57.923Z,3.00
2022-11-26T05:38:24.958Z,3.10
2022-11-26T05:40:51.977Z,3.10
2022-11-26T05:43:18.996Z,3.20
2022-11-26T05:45:46.192Z,3.20
2022-11-26T05:48:13.062Z,3.00
2022-11-26T05:50:39.978Z,3.20
2022-11-26T05:53:07.044Z,3.10
2022-11-26T05:55:34.173Z,3.10
2022-11-26T05:58:01.078Z,3.10
2022-11-26T06:00:28.112Z,3.10
2022-11-26T06:02:55.111Z,3.10
2022-11-26T06:05:22.355Z,3.10
2022-11-26T06:07:49.288Z,3.10
2022-11-26T06:10:16.249Z,5.40
2022-11-26T06:12:43.116Z,3.20
2022-11-26T06:15:10.805Z,3.20
2022-11-26T06:17:37.780Z,3.20
2022-11-26T06:20:05.690Z,3.20
2022-11-26T06:22:42.271Z,3.20
2022-11-26T06:25:13.536Z,3.20
2022-11-26T06:27:40.918Z,3.30
2022-11-26T06:30:10.449Z,3.20
2022-11-26T06:32:37.556Z,3.20
2022-11-26T06:35:05.283Z,3.30
2022-11-26T06:37:33.098Z,3.30
2022-11-26T06:40:00.232Z,3.30
2022-11-26T06:42:27.279Z,3.30
2022-11-26T06:44:59.451Z,3.30
2022-11-26T06:47:27.010Z,3.30
2022-11-26T06:49:54.025Z,3.40
2022-11-26T06:52:20.875Z,3.40
2022-11-26T06:54:47.796Z,3.40
2022-11-26T06:57:14.660Z,3.50
2022-11-26T06:59:41.587Z,3.50
2022-11-26T07:02:10.245Z,3.50
2022-11-26T07:04:37.563Z,3.50
2022-11-26T07:07:04.622Z,3.50
2022-11-26T07:09:31.567Z,3.60
2022-11-26T07:11:58.839Z,3.60
2022-11-26T07:14:25.845Z,3.60
2022-11-26T07:16:52.848Z,3.70
2022-11-26T07:19:19.727Z,3.70
2022-11-26T07:21:46.684Z,3.80
2022-11-26T07:24:13.592Z,3.70
2022-11-26T07:26:40.484Z,3.70
2022-11-26T07:29:07.390Z,3.70
2022-11-26T07:31:34.426Z,3.70
2022-11-26T07:34:01.414Z,6.00
2022-11-26T07:36:30.788Z,3.60
2022-11-26T07:39:00.282Z,3.70
2022-11-26T07:41:29.540Z,3.80
2022-11-26T07:43:56.828Z,3.80
2022-11-26T07:46:25.766Z,3.70
2022-11-26T07:48:52.781Z,6.80
2022-11-26T07:51:24.013Z,3.70
2022-11-26T07:53:52.204Z,4.30
2022-11-26T07:56:19.980Z,3.90
2022-11-26T07:58:47.372Z,3.90
2022-11-26T08:01:17.562Z,3.90
2022-11-26T08:03:47.661Z,4.00
2022-11-26T08:06:19.142Z,3.90
2022-11-26T08:08:46.089Z,5.20
2022-11-26T08:11:19.765Z,3.90
2022-11-26T08:13:47.603Z,3.90
2022-11-26T08:16:15.663Z,4.10
2022-11-26T08:18:42.711Z,4.10
2022-11-26T08:21:10.608Z,4.10
2022-11-26T08:23:38.071Z,4.20
2022-11-26T08:26:23.858Z,4.20
2022-11-26T08:28:53.300Z,4.20
2022-11-26T08:31:20.553Z,4.30
2022-11-26T08:33:47.730Z,4.30
2022-11-26T08:36:14.662Z,4.40
2022-11-26T08:38:41.617Z,4.40
2022-11-26T08:41:13.583Z,4.40
2022-11-26T08:46:28.437Z,4.50
2022-11-26T08:48:57.566Z,4.50
2022-11-26T08:51:25.288Z,6.30
2022-11-26T08:53:53.262Z,4.60
2022-11-26T08:56:20.197Z,4.70
2022-11-26T08:58:48.943Z,4.80
2022-11-26T09:01:32.632Z,4.70
2022-11-26T09:04:02.257Z,4.90
2022-11-26T09:06:31.705Z,4.90
2022-11-26T09:09:13.229Z,5.00
2022-11-26T09:11:50.660Z,5.10
2022-11-26T09:14:21.170Z,5.10
2022-11-26T09:16:48.238Z,5.20
2022-11-26T09:19:16.215Z,5.30
2022-11-26T09:21:44.203Z,5.30
2022-11-26T09:24:11.715Z,5.30
2022-11-26T09:26:38.609Z,5.30
2022-11-26T09:29:05.678Z,5.40
2022-11-26T09:31:33.325Z,5.30
2022-11-26T09:34:01.679Z,5.40
2022-11-26T09:36:29.180Z,5.50
2022-11-26T09:38:57.885Z,6.20
2022-11-26T09:41:41.310Z,5.60
2022-11-26T09:44:08.071Z,5.60
2022-11-26T09:47:22.297Z,5.60
2022-11-26T09:50:07.790Z,5.60
2022-11-26T09:52:58.009Z,6.60
2022-11-26T09:55:35.334Z,5.60
2022-11-26T09:58:30.049Z,5.60
2022-11-26T10:01:04.400Z,5.70
2022-11-26T10:03:35.429Z,5.70
2022-11-26T10:06:30.066Z,5.80
2022-11-26T10:09:26.286Z,5.80
2022-11-26T10:12:31.795Z,6.10
2022-11-26T10:15:17.742Z,6.00
2022-11-26T10:18:26.137Z,6.00
2022-11-26T10:21:11.426Z,6.00
2022-11-26T10:23:47.590Z,6.00
2022-11-26T10:26:18.411Z,6.10
2022-11-26T10:28:50.847Z,6.00
2022-11-26T10:31:32.755Z,6.10
2022-11-26T10:34:04.129Z,6.40
2022-11-26T10:36:36.592Z,6.10
2022-11-26T10:39:04.020Z,6.00
2022-11-26T10:41:37.073Z,6.00
2022-11-26T10:44:35.492Z,5.90
2022-11-26T10:47:35.060Z,5.90
2022-11-26T10:50:19.391Z,5.80
2022-11-26T10:52:52.926Z,6.40
2022-11-26T10:55:41.093Z,5.70
2022-11-26T10:58:20.614Z,5.70
2022-11-26T11:00:50.510Z,5.60
2022-11-26T11:04:06.059Z,5.60
2022-11-26T11:06:21.425Z,5.60
2022-11-26T11:08:51.124Z,5.60
2022-11-26T11:11:30.605Z,5.60
2022-11-26T11:13:58.342Z,5.60
2022-11-26T11:16:43.090Z,8.00
2022-11-26T11:19:25.439Z,5.60
2022-11-26T11:21:52.651Z,5.50
2022-11-26T11:24:29.884Z,5.60
2022-11-26T11:27:00.170Z,5.60
2022-11-26T11:29:33.993Z,5.50
2022-11-26T11:32:05.109Z,5.60
2022-11-26T11:34:44.304Z,5.60
2022-11-26T11:37:23.229Z,5.60
2022-11-26T11:40:06.124Z,5.60
2022-11-26T11:42:33.157Z,5.60
2022-11-26T11:45:01.627Z,5.60
2022-11-26T11:47:40.788Z,5.60
2022-11-26T11:50:29.133Z,5.70
2022-11-26T11:53:23.366Z,5.60
2022-11-26T11:56:17.623Z,5.70
2022-11-26T11:59:24.372Z,5.70
2022-11-26T12:02:27.126Z,5.70
2022-11-26T12:05:36.269Z,5.70
2022-11-26T12:08:33.951Z,5.70
2022-11-26T12:11:26.527Z,5.70
2022-11-26T12:14:25.067Z,5.70
2022-11-26T12:17:00.345Z,5.70
2022-11-26T12:19:59.832Z,6.00
2022-11-26T12:22:44.875Z,5.90
2022-11-26T12:25:38.768Z,6.00
2022-11-26T12:28:23.502Z,6.00
2022-11-26T12:31:23.063Z,6.20
2022-11-26T12:34:08.542Z,6.20
2022-11-26T12:36:57.331Z,6.30
2022-11-26T12:39:57.459Z,6.40
2022-11-26T12:42:45.436Z,6.50
2022-11-26T12:45:41.144Z,6.60
2022-11-26T12:48:33.777Z,6.70
2022-11-26T12:51:30.304Z,6.80
2022-11-26T12:54:26.887Z,6.90
2022-11-26T12:57:07.144Z,6.90
2022-11-26T12:59:41.051Z,6.90
2022-11-26T13:02:34.521Z,7.00
2022-11-26T13:05:01.595Z,6.90
2022-11-26T13:07:52.680Z,6.90
2022-11-26T13:10:56.045Z,6.90
2022-11-26T13:14:21.835Z,6.90
2022-11-26T13:17:18.539Z,6.90
2022-11-26T13:20:22.978Z,6.90
2022-11-26T13:23:14.620Z,6.80
2022-11-26T13:26:05.876Z,6.90
2022-11-26T13:28:54.542Z,6.90
2022-11-26T13:32:12.972Z,6.80
2022-11-26T13:35:04.993Z,6.80
2022-11-26T13:37:58.050Z,6.80
2022-11-26T13:40:44.949Z,6.80
2022-11-26T13:43:32.751Z,6.80
2022-11-26T13:46:22.841Z,6.80
2022-11-26T13:49:23.050Z,6.80
2022-11-26T13:51:58.262Z,6.90
2022-11-26T13:54:44.570Z,6.90
2022-11-26T13:57:24.522Z,7.00
2022-11-26T13:59:55.732Z,8.60
2022-11-26T14:02:37.490Z,7.00
2022-11-26T14:05:08.109Z,7.00
2022-11-26T14:07:35.493Z,7.10
2022-11-26T14:10:05.447Z,9.80
2022-11-26T14:13:03.260Z,9.00
2022-11-26T14:15:42.264Z,7.10
2022-11-26T14:18:16.796Z,7.10
2022-11-26T14:21:01.629Z,7.10
2022-11-26T14:23:47.381Z,7.00
2022-11-26T14:26:34.649Z,7.00
2022-11-26T14:29:11.852Z,7.00
2022-11-26T14:31:54.498Z,6.90
2022-11-26T14:34:43.808Z,6.90
2022-11-26T14:37:17.787Z,8.20
2022-11-26T14:39:45.173Z,6.70
2022-11-26T14:42:19.873Z,6.70
2022-11-26T14:44:46.898Z,6.80
2022-11-26T14:47:20.946Z,6.60
2022-11-26T14:49:56.261Z,6.60
2022-11-26T14:52:28.771Z,6.60
2022-11-26T14:54:59.718Z,6.50
2022-11-26T14:57:53.188Z,6.60
2022-11-26T15:00:28.460Z,6.50
2022-11-26T15:02:56.506Z,6.50
2022-11-26T15:05:27.015Z,8.80
2022-11-26T15:08:20.206Z,6.50
2022-11-26T15:10:52.777Z,7.90
2022-11-26T15:13:36.094Z,6.50
2022-11-26T15:16:25.168Z,6.50
2022-11-26T15:18:54.694Z,6.50
2022-11-26T15:21:25.548Z,6.50
2022-11-26T15:23:53.812Z,6.40
2022-11-26T15:26:25.179Z,8.30
2022-11-26T15:28:52.160Z,6.40
2022-11-26T15:31:19.292Z,6.40
2022-11-26T15:33:47.190Z,6.40
2022-11-26T15:36:17.678Z,6.30
2022-11-26T15:39:06.408Z,6.30
2022-11-26T15:41:42.404Z,6.30
2022-11-26T15:44:26.361Z,6.30
2022-11-26T15:46:55.680Z,6.30
2022-11-26T15:49:52.083Z,6.30
2022-11-26T15:52:27.504Z,6.30
2022-11-26T15:55:19.207Z,6.30
2022-11-26T15:57:51.371Z,6.30
2022-11-26T16:00:34.845Z,6.30
2022-11-26T16:03:02.188Z,6.20
2022-11-26T16:05:38.640Z,8.40
2022-11-26T16:08:28.198Z,6.20
2022-11-26T16:11:08.356Z,6.20
2022-11-26T16:13:36.157Z,6.20
2022-11-26T16:16:16.819Z,6.20
2022-11-26T16:18:54.736Z,6.20
2022-11-26T16:21:27.605Z,6.20
2022-11-26T16:24:01.140Z,6.20
2022-11-26T16:26:28.921Z,6.10
2022-11-26T16:28:56.203Z,6.10
2022-11-26T16:31:23.612Z,6.10
2022-11-26T16:33:50.585Z,6.10
2022-11-26T16:36:22.785Z,6.10
2022-11-26T16:38:49.988Z,6.10
2022-11-26T16:41:20.898Z,6.00
2022-11-26T16:43:48.671Z,6.00
2022-11-26T16:46:23.684Z,6.00
2022-11-26T16:48:51.926Z,6.00
2022-11-26T16:51:19.160Z,6.00
2022-11-26T16:53:46.026Z,6.00
2022-11-26T16:56:28.261Z,6.00
2022-11-26T16:58:59.114Z,6.00
2022-11-26T17:01:27.065Z,6.00
2022-11-26T17:03:54.040Z,6.00
2022-11-26T17:06:33.888Z,6.00
2022-11-26T17:09:01.826Z,6.00
2022-11-26T17:11:28.873Z,5.90
2022-11-26T17:13:55.966Z,5.90
2022-11-26T17:16:23.814Z,5.90
2022-11-26T17:18:50.788Z,7.50
2022-11-26T17:21:18.033Z,6.00
2022-11-26T17:23:44.936Z,5.90
2022-11-26T17:26:21.112Z,5.90
2022-11-26T17:28:49.520Z,5.90
2022-11-26T17:31:17.221Z,7.50
2022-11-26T17:33:44.213Z,5.90
2022-11-26T17:36:18.095Z,5.90
2022-11-26T17:38:46.147Z,5.90
2022-11-26T17:41:14.513Z,5.90
2022-11-26T17:43:41.740Z,5.80
2022-11-26T17:46:22.878Z,5.80
2022-11-26T17:48:54.272Z,5.80
2022-11-26T17:51:23.954Z,5.80
2022-11-26T17:53:50.776Z,7.50
2022-11-26T17:56:21.931Z,5.80
2022-11-26T17:58:49.757Z,5.80
2022-11-26T18:01:17.961Z,5.80
2022-11-26T18:03:45.772Z,5.80
2022-11-26T18:06:28.386Z,5.80
2022-11-26T18:08:55.262Z,5.80
2022-11-26T18:11:51.861Z,5.80
2022-11-26T18:14:19.272Z,5.80
2022-11-26T18:16:46.451Z,5.80
2022-11-26T18:19:16.559Z,5.80
2022-11-26T18:21:43.585Z,5.80
2022-11-26T18:24:11.460Z,5.70
2022-11-26T18:26:39.680Z,5.70
2022-11-26T18:29:07.640Z,5.70
2022-11-26T18:31:39.542Z,5.70
2022-11-26T18:34:07.795Z,5.70
2022-11-26T18:36:35.105Z,5.70
2022-11-26T18:39:06.253Z,5.70
2022-11-26T18:41:33.544Z,5.80
2022-11-26T18:44:04.108Z,7.50
2022-11-26T18:46:32.325Z,5.80
2022-11-26T18:49:00.438Z,5.80
2022-11-26T18:51:28.063Z,5.90
2022-11-26T18:53:54.945Z,5.90
2022-11-26T18:56:23.394Z,5.90
2022-11-26T18:58:51.581Z,5.90
2022-11-26T19:01:26.257Z,5.90
2022-11-26T19:03:54.252Z,5.90
2022-11-26T19:06:28.090Z,6.00
2022-11-26T19:09:01.466Z,5.90
2022-11-26T19:11:29.023Z,6.00
2022-11-26T19:13:57.454Z,6.00
2022-11-26T19:16:25.248Z,6.00
2022-11-26T19:18:53.153Z,6.00
2022-11-26T19:21:25.150Z,6.00
2022-11-26T19:23:53.800Z,6.00
2022-11-26T19:26:21.756Z,6.00
2022-11-26T19:28:49.373Z,6.00
2022-11-26T19:31:23.066Z,7.40
2022-11-26T19:34:00.930Z,6.00
2022-11-26T19:36:29.728Z,5.90
2022-11-26T19:38:58.495Z,6.00
2022-11-26T19:41:26.759Z,7.40
2022-11-26T19:43:54.117Z,5.90
2022-11-26T19:46:24.534Z,6.00
2022-11-26T19:48:52.915Z,6.00
2022-11-26T19:51:22.881Z,5.90
2022-11-26T19:53:55.875Z,5.90
2022-11-26T19:56:29.341Z,6.00
2022-11-26T19:59:03.006Z,6.00
2022-11-26T20:01:32.708Z,5.90
2022-11-26T20:04:02.948Z,7.60
2022-11-26T20:06:32.275Z,5.90
2022-11-26T20:08:59.554Z,5.90
2022-11-26T20:11:28.595Z,7.70
2022-11-26T20:13:56.807Z,6.00
2022-11-26T20:16:31.876Z,5.90
2022-11-26T20:18:59.726Z,6.60
2022-11-26T20:21:32.361Z,5.90
2022-11-26T20:24:05.669Z,8.50
2022-11-26T20:26:37.240Z,5.80
2022-11-26T20:29:13.067Z,5.80
2022-11-26T20:31:49.471Z,5.80
2022-11-26T20:34:19.943Z,5.90
2022-11-26T20:36:47.603Z,5.90
2022-11-26T20:39:20.906Z,5.80
2022-11-26T20:41:48.218Z,5.80
2022-11-26T20:44:15.625Z,5.90
2022-11-26T20:46:43.478Z,5.80
2022-11-26T20:49:11.554Z,5.80
2022-11-26T20:51:38.693Z,5.80
2022-11-26T20:54:05.693Z,5.80
2022-11-26T20:56:33.229Z,5.80
2022-11-26T20:59:02.015Z,5.80
2022-11-26T21:01:30.391Z,5.80
2022-11-26T21:03:58.252Z,5.80
2022-11-26T21:06:30.304Z,6.70
2022-11-26T21:09:04.264Z,5.70
2022-11-26T21:11:31.671Z,5.70
2022-11-26T21:13:59.950Z,5.70
2022-11-26T21:16:27.775Z,5.60
2022-11-26T21:18:55.097Z,6.50
2022-11-26T21:21:24.061Z,5.70
2022-11-26T21:23:51.414Z,5.70
2022-11-26T21:26:22.113Z,5.70
2022-11-26T21:28:54.159Z,5.70
2022-11-26T21:31:22.435Z,5.70
2022-11-26T21:34:02.822Z,5.70
2022-11-26T21:36:31.966Z,5.70
2022-11-26T21:38:59.400Z,5.70
2022-11-26T21:41:27.414Z,5.70
2022-11-26T21:43:55.122Z,8.80
2022-11-26T21:46:25.540Z,5.80
2022-11-26T21:48:54.648Z,5.70
2022-11-26T21:51:23.674Z,5.70
2022-11-26T21:53:50.897Z,5.70
2022-11-26T21:56:23.940Z,5.70
2022-11-26T21:58:51.794Z,5.70
2022-11-26T22:01:29.131Z,5.70
2022-11-26T22:04:00.154Z,5.70
2022-11-26T22:06:27.647Z,5.70
2022-11-26T22:08:55.518Z,5.60
2022-11-26T22:11:31.430Z,5.60
2022-11-26T22:13:58.406Z,5.60
2022-11-26T22:16:27.542Z,5.60
2022-11-26T22:18:56.523Z,5.60
2022-11-26T22:21:39.895Z,5.60
2022-11-26T22:24:11.733Z,5.60
2022-11-26T22:26:38.856Z,5.60
2022-11-26T22:29:06.333Z,5.60
2022-11-26T22:31:37.213Z,5.50
2022-11-26T22:34:12.263Z,5.60
2022-11-26T22:36:40.726Z,5.60
2022-11-26T22:39:11.724Z,5.60
2022-11-26T22:41:40.795Z,5.50
2022-11-26T22:44:08.346Z,5.70
2022-11-26T22:46:38.307Z,5.60
2022-11-26T22:49:06.536Z,8.20
2022-11-26T22:51:35.226Z,6.80
2022-11-26T22:54:06.890Z,5.70
2022-11-26T22:56:36.905Z,8.30
2022-11-26T22:59:04.250Z,8.30
2022-11-26T23:01:34.268Z,5.70
2022-11-26T23:04:04.881Z,8.60
2022-11-26T23:06:34.615Z,5.70
2022-11-26T23:09:03.550Z,5.70
2022-11-26T23:11:40.360Z,5.70
2022-11-26T23:14:09.580Z,5.70
2022-11-26T23:16:39.406Z,5.70
2022-11-26T23:19:07.189Z,5.70
2022-11-26T23:21:39.984Z,5.50
2022-11-26T23:24:07.974Z,5.60
2022-11-26T23:26:38.049Z,5.70
2022-11-26T23:29:07.250Z,5.60
2022-11-26T23:31:38.382Z,5.70
2022-11-26T23:34:06.232Z,5.60
2022-11-26T23:36:34.425Z,5.60
2022-11-26T23:39:04.124Z,8.00
2022-11-26T23:41:31.087Z,8.30
2022-11-26T23:43:58.241Z,5.50
2022-11-26T23:46:32.147Z,5.50
2022-11-26T23:48:59.386Z,5.50
2022-11-26T23:51:30.310Z,5.50
2022-11-26T23:53:57.757Z,5.50
2022-11-26T23:56:28.849Z,5.50
2022-11-26T23:58:59.057Z,5.50
